This is the latest recevied weather packets stored in our database for station/object KC0AFB. If no packets are shown the sender has not sent any weather packets the latest 1 day(s).
| Time | Temp. | Humidity | Pressure | Rain* | Wind** | Luminosity | Snow |
|---|---|---|---|---|---|---|---|
| 1778018316 | 5.56° C | 49% | 1015.3 hPa | 0 mm | 4.92 m/s, 328° | 191 W/m² | - |
| 1778018014 | 5.56° C | 50% | 1015.1 hPa | 0 mm | 3.58 m/s, 337° | 215 W/m² | - |
| 1778017712 | 5.56° C | 49% | 1015 hPa | 0 mm | 2.68 m/s, 295° | 200 W/m² | - |
| 1778017409 | 5.56° C | 48% | 1015 hPa | 0 mm | 4.92 m/s, 304° | 210 W/m² | - |
| 1778017106 | 5.56° C | 47% | 1015 hPa | 0 mm | 6.26 m/s, 297° | 217 W/m² | - |
| 1778016804 | 5.56° C | 49% | 1015.2 hPa | 0 mm | 2.68 m/s, 312° | 235 W/m² | - |
| 1778016499 | 5.56° C | 48% | 1015.1 hPa | 0 mm | 4.92 m/s, 319° | 248 W/m² | - |
| 1778016197 | 5.56° C | 49% | 1015.1 hPa | 0 mm | 4.02 m/s, 292° | 233 W/m² | - |
| 1778015892 | 5.56° C | 49% | 1015.3 hPa | 0 mm | 2.24 m/s, 330° | 223 W/m² | - |
| 1778015591 | 5° C | 49% | 1015.1 hPa | 0 mm | 4.47 m/s, 283° | 207 W/m² | - |
| 1778015287 | 5.56° C | 50% | 1015 hPa | 0 mm | 2.24 m/s, 349° | 207 W/m² | - |
| 1778014984 | 5.56° C | 49% | 1015 hPa | 0 mm | 4.02 m/s, 306° | 215 W/m² | - |
| 1778014681 | 5.56° C | 49% | 1015 hPa | 0 mm | 2.68 m/s, 304° | 187 W/m² | - |
| 1778014379 | 5.56° C | 50% | 1014.9 hPa | 0 mm | 3.13 m/s, 335° | 237 W/m² | - |
| 1778014075 | 5.56° C | 48% | 1015.1 hPa | 0 mm | 4.02 m/s, 292° | 237 W/m² | - |
| 1778013773 | 5.56° C | 48% | 1015.2 hPa | 0 mm | 4.02 m/s, 340° | 230 W/m² | - |
| 1778013470 | 5.56° C | 48% | 1015.1 hPa | 0 mm | 5.36 m/s, 314° | 217 W/m² | - |
| 1778013167 | 5.56° C | 49% | 1014.9 hPa | 0 mm | 4.92 m/s, 319° | 265 W/m² | - |
| 1778012863 | 6.11° C | 46% | 1014.9 hPa | 0 mm | 4.92 m/s, 327° | 288 W/m² | - |
| 1778012559 | 5.56° C | 47% | 1015 hPa | 0 mm | 2.68 m/s, 314° | 290 W/m² | - |
| 1778012256 | 6.11° C | 47% | 1014.9 hPa | 0 mm | 5.81 m/s, 281° | 301 W/m² | - |
| 1778011954 | 6.11° C | 46% | 1014.9 hPa | 0 mm | 4.92 m/s, 305° | 337 W/m² | - |
| 1778011652 | 6.11° C | 47% | 1014.6 hPa | 0 mm | 3.13 m/s, 309° | 510 W/m² | - |
| 1778011349 | 6.11° C | 46% | 1014.8 hPa | 0 mm | 5.36 m/s, 305° | 367 W/m² | - |
| 1778011044 | 6.67° C | 46% | 1014.6 hPa | 0 mm | 6.26 m/s, 297° | 563 W/m² | - |
* Rain latest hour (hover to see other rain measurements)
** Current wind speed in m/s (hover to see current wind gust speed)